Time;durP1;ratioP1;P1;durP2;ratioP2;P2;SDS_P1;SDS_P2;PMS_P1;PMS_P2;Temp;Humidity;BMP_temperature;BMP_pressure;BME280_temperature;BME280_humidity;BME280_pressure;Samples;Min_cycle;Max_cycle;Signal;HPM_P1;HPM_P2
2022/11/12 00:00:01;;;;;;;6.22;3.03;;;8.10;99.90;;;;;;5020317;28;20053;-72
2022/11/12 00:02:27;;;;;;;5.63;2.90;;;8.10;99.90;;;;;;5004660;28;20050;-71
2022/11/12 00:04:55;;;;;;;6.68;2.90;;;8.00;99.90;;;;;;5023270;28;20054;-71
2022/11/12 00:07:21;;;;;;;8.45;3.15;;;8.00;99.90;;;;;;5025848;28;20042;-71
2022/11/12 00:09:46;;;;;;;7.65;3.50;;;7.90;99.90;;;;;;4992282;28;20081;-72
2022/11/12 00:12:12;;;;;;;5.75;3.30;;;7.90;99.90;;;;;;5010488;28;20060;-72
2022/11/12 00:14:38;;;;;;;7.15;3.75;;;7.80;99.90;;;;;;4992814;28;20041;-72
2022/11/12 00:17:03;;;;;;;5.35;2.85;;;7.80;99.90;;;;;;5023913;28;20049;-72
2022/11/12 00:19:29;;;;;;;5.60;3.00;;;7.80;99.90;;;;;;4978379;28;20072;-72
2022/11/12 00:21:58;;;;;;;6.72;2.92;;;7.80;99.90;;;;;;5014727;28;20512;-73
2022/11/12 00:24:23;;;;;;;8.95;3.42;;;7.80;99.90;;;;;;5024828;28;20046;-72
2022/11/12 00:26:50;;;;;;;7.70;3.45;;;7.80;99.90;;;;;;5026718;28;20061;-72
2022/11/12 00:29:16;;;;;;;6.88;3.28;;;7.80;99.90;;;;;;5035333;28;20065;-72
2022/11/12 00:31:41;;;;;;;8.10;2.97;;;7.80;99.90;;;;;;4993231;28;20754;-72
2022/11/12 00:34:07;;;;;;;6.43;3.08;;;7.80;99.90;;;;;;5029076;28;20408;-72
2022/11/12 00:36:33;;;;;;;6.93;3.20;;;7.80;99.90;;;;;;5012700;28;20085;-72
2022/11/12 00:38:59;;;;;;;5.70;3.00;;;7.70;99.90;;;;;;5029463;28;20423;-71
2022/11/12 00:41:27;;;;;;;4.60;2.78;;;7.80;99.90;;;;;;5007659;28;20072;-71
2022/11/12 00:43:53;;;;;;;5.45;2.88;;;7.80;99.90;;;;;;5013497;28;20049;-71
2022/11/12 00:46:19;;;;;;;5.85;2.80;;;7.70;99.90;;;;;;5014738;28;20107;-71
2022/11/12 00:48:44;;;;;;;6.32;3.20;;;7.70;99.90;;;;;;5025006;28;20061;-71
2022/11/12 00:51:10;;;;;;;6.32;2.78;;;7.80;99.90;;;;;;5027487;28;20460;-72
2022/11/12 00:53:36;;;;;;;5.53;2.85;;;7.70;99.90;;;;;;5045995;28;20050;-71
2022/11/12 00:56:05;;;;;;;6.53;2.85;;;7.70;99.90;;;;;;5030131;28;20042;-72
2022/11/12 00:58:32;;;;;;;7.68;3.03;;;7.70;99.90;;;;;;5001391;28;20054;-72
2022/11/12 01:01:03;;;;;;;7.55;2.90;;;7.60;99.90;;;;;;5012460;28;20100;-72
2022/11/12 01:03:28;;;;;;;5.10;2.72;;;7.60;99.90;;;;;;5013237;28;20073;-71
2022/11/12 01:05:54;;;;;;;4.60;2.60;;;7.50;99.90;;;;;;5011731;28;20092;-72
2022/11/12 01:08:20;;;;;;;5.43;2.60;;;7.40;99.90;;;;;;5024500;28;20403;-72
2022/11/12 01:10:45;;;;;;;5.55;2.65;;;7.30;99.90;;;;;;5013782;28;20056;-71
2022/11/12 01:13:11;;;;;;;5.38;2.78;;;7.30;99.90;;;;;;5010795;28;20042;-72
2022/11/12 01:15:41;;;;;;;4.40;2.80;;;7.40;99.90;;;;;;5012977;28;20050;-71
2022/11/12 01:18:07;;;;;;;6.15;3.30;;;7.40;99.90;;;;;;5007179;28;20050;-71
2022/11/12 01:20:34;;;;;;;5.68;3.10;;;7.50;99.90;;;;;;5011635;28;20068;-71
2022/11/12 01:23:01;;;;;;;8.75;3.10;;;7.60;99.90;;;;;;5012286;28;20056;-71
2022/11/12 01:25:26;;;;;;;5.97;2.60;;;7.60;99.90;;;;;;5007407;28;20054;-71
2022/11/12 01:27:53;;;;;;;4.85;2.33;;;7.60;99.90;;;;;;5012795;28;20916;-71
2022/11/12 01:30:19;;;;;;;7.72;2.60;;;7.60;99.90;;;;;;5011343;28;20072;-70
2022/11/12 01:32:45;;;;;;;7.65;3.10;;;7.50;99.90;;;;;;5013096;28;20456;-71
2022/11/12 01:35:11;;;;;;;6.10;2.88;;;7.50;99.90;;;;;;5027891;28;20049;-71
2022/11/12 01:37:36;;;;;;;8.50;3.05;;;7.60;99.90;;;;;;5012030;28;20060;-70
2022/11/12 01:40:02;;;;;;;6.32;2.90;;;7.60;99.90;;;;;;5011540;28;20086;-70
2022/11/12 01:42:29;;;;;;;6.93;3.03;;;7.50;99.90;;;;;;5012621;28;20042;-70
2022/11/12 01:44:57;;;;;;;4.95;3.17;;;7.60;99.90;;;;;;5004195;28;20045;-71
2022/11/12 01:47:28;;;;;;;6.80;2.90;;;7.60;99.90;;;;;;4995504;28;20689;-71
2022/11/12 01:50:32;;;;;;;4.53;2.90;;;7.50;99.90;;;;;;5022353;28;20084;-71
2022/11/12 01:53:04;;;;;;;5.05;2.65;;;7.50;99.90;;;;;;5034307;28;20042;-71
2022/11/12 01:55:33;;;;;;;7.25;2.83;;;7.40;99.90;;;;;;5007587;28;20050;-71
2022/11/12 01:58:18;;;;;;;4.88;2.88;;;7.40;99.90;;;;;;5010031;28;20049;-70
2022/11/12 02:00:45;;;;;;;7.32;2.83;;;7.30;99.90;;;;;;5016803;28;20387;-71
2022/11/12 02:03:22;;;;;;;5.00;2.92;;;7.40;99.90;;;;;;5011396;28;20049;-71
2022/11/12 02:05:48;;;;;;;5.65;2.47;;;7.40;99.90;;;;;;4993854;28;20419;-71
2022/11/12 02:08:14;;;;;;;5.50;2.30;;;7.40;99.90;;;;;;5008980;28;20056;-71
2022/11/12 02:10:40;;;;;;;7.63;2.30;;;7.40;99.90;;;;;;5010365;28;20045;-71
2022/11/12 02:15:51;;;;;;;4.25;2.13;;;7.30;99.90;;;;;;5014678;28;20046;-71
2022/11/12 02:18:16;;;;;;;4.90;2.40;;;7.30;99.90;;;;;;4999175;28;20049;-71
2022/11/12 02:20:42;;;;;;;6.90;3.20;;;7.30;99.90;;;;;;5028523;28;20460;-71
2022/11/12 02:23:08;;;;;;;6.05;2.72;;;7.30;99.90;;;;;;5007824;28;20053;-71
2022/11/12 02:25:34;;;;;;;5.03;2.58;;;7.30;99.90;;;;;;5008510;28;20046;-71
2022/11/12 02:27:59;;;;;;;3.75;2.50;;;7.30;99.90;;;;;;5011769;28;20045;-70
2022/11/12 02:30:37;;;;;;;5.95;2.63;;;7.20;99.90;;;;;;4992300;28;20053;-71
2022/11/12 02:33:03;;;;;;;9.23;2.88;;;7.20;99.90;;;;;;5005269;28;20045;-72
2022/11/12 02:35:29;;;;;;;4.07;2.10;;;7.20;99.90;;;;;;4995072;28;20353;-71
2022/11/12 02:37:55;;;;;;;5.88;2.53;;;7.20;99.90;;;;;;4993758;28;20050;-71
2022/11/12 02:40:21;;;;;;;5.88;2.55;;;7.20;99.90;;;;;;4990979;28;20053;-71
2022/11/12 02:42:46;;;;;;;5.63;2.35;;;7.30;99.90;;;;;;5009109;28;20046;-71
2022/11/12 02:45:12;;;;;;;4.95;2.83;;;7.20;99.90;;;;;;5026319;28;20049;-70
2022/11/12 02:47:38;;;;;;;6.25;2.72;;;7.20;99.90;;;;;;5009020;28;20066;-70
2022/11/12 02:50:04;;;;;;;5.65;2.55;;;7.10;99.90;;;;;;5006853;28;20087;-71
2022/11/12 02:52:31;;;;;;;6.53;2.63;;;7.00;99.90;;;;;;4995109;28;20034;-71
2022/11/12 02:54:57;;;;;;;6.60;2.35;;;7.00;99.90;;;;;;5010442;28;20037;-71
2022/11/12 02:57:22;;;;;;;4.82;2.70;;;7.00;99.90;;;;;;5010655;28;20060;-71
2022/11/12 02:59:48;;;;;;;5.13;2.40;;;7.00;99.90;;;;;;4991412;28;20070;-71
2022/11/12 03:02:14;;;;;;;5.72;2.42;;;7.10;99.90;;;;;;5025949;28;20353;-71
2022/11/12 03:04:40;;;;;;;4.15;2.60;;;7.10;99.90;;;;;;5009398;28;20045;-71
2022/11/12 03:07:05;;;;;;;5.90;2.40;;;7.10;99.90;;;;;;5011975;28;20049;-71
2022/11/12 03:09:31;;;;;;;10.35;2.90;;;7.10;99.90;;;;;;5010764;28;20480;-71
2022/11/12 03:11:57;;;;;;;5.30;2.80;;;7.10;99.90;;;;;;4990823;28;20046;-71
2022/11/12 03:14:23;;;;;;;5.13;2.40;;;7.10;99.90;;;;;;5009460;28;20475;-71
2022/11/12 03:16:49;;;;;;;6.32;2.45;;;7.00;99.90;;;;;;5010888;28;20064;-69
2022/11/12 03:19:15;;;;;;;5.07;2.70;;;7.00;99.90;;;;;;5024640;28;20128;-69
2022/11/12 03:21:40;;;;;;;4.50;2.60;;;7.00;99.90;;;;;;5022715;28;20491;-69
2022/11/12 03:24:06;;;;;;;6.90;2.80;;;6.90;99.90;;;;;;5010619;28;20046;-69
2022/11/12 03:26:33;;;;;;;6.28;2.97;;;6.90;99.90;;;;;;5010875;28;20367;-70
2022/11/12 03:28:59;;;;;;;6.43;2.60;;;6.90;99.90;;;;;;5005751;28;20441;-70
2022/11/12 03:31:25;;;;;;;5.68;3.03;;;6.90;99.90;;;;;;5009325;28;20073;-70
2022/11/12 03:33:52;;;;;;;5.15;2.55;;;6.80;99.90;;;;;;5010647;28;20119;-69
2022/11/12 03:36:17;;;;;;;5.45;2.60;;;6.80;99.90;;;;;;5043037;28;20049;-69
2022/11/12 03:38:43;;;;;;;4.05;2.65;;;6.80;99.90;;;;;;5009512;28;20547;-69
2022/11/12 03:41:09;;;;;;;4.80;2.47;;;6.80;99.90;;;;;;5023289;28;20061;-69
2022/11/12 03:43:34;;;;;;;4.78;2.53;;;6.80;99.90;;;;;;5038699;28;20518;-69
2022/11/12 03:46:00;;;;;;;5.28;2.83;;;6.80;99.90;;;;;;4993809;28;20054;-70
2022/11/12 03:48:26;;;;;;;6.05;2.72;;;6.70;99.90;;;;;;5009873;28;20128;-69
2022/11/12 03:50:55;;;;;;;8.85;2.42;;;6.80;99.90;;;;;;5009447;28;20042;-69
2022/11/12 03:53:21;;;;;;;4.10;2.58;;;6.80;99.90;;;;;;5009945;28;20057;-69
2022/11/12 03:55:47;;;;;;;4.82;2.50;;;6.70;99.90;;;;;;5040432;28;20042;-69
2022/11/12 03:58:13;;;;;;;4.15;2.25;;;6.60;99.90;;;;;;5009709;28;20077;-69
2022/11/12 04:00:39;;;;;;;4.63;2.33;;;6.50;99.90;;;;;;5026105;28;20057;-69
2022/11/12 04:03:04;;;;;;;5.18;2.40;;;6.50;99.90;;;;;;5007948;28;20049;-69
2022/11/12 04:08:36;;;;;;;6.53;3.10;;;6.40;99.90;;;;;;5009671;28;20124;-69
2022/11/12 04:11:11;;;;;;;6.60;3.03;;;6.50;99.90;;;;;;5007597;28;20049;-69
2022/11/12 04:13:38;;;;;;;7.75;3.40;;;6.40;99.90;;;;;;5010837;28;20480;-69
2022/11/12 04:21:54;;;;;;;7.55;3.08;;;6.40;99.90;;;;;;5004573;28;20124;-70
2022/11/12 04:27:32;;;;;;;4.82;3.20;;;6.40;99.90;;;;;;5007248;28;20054;-69
2022/11/12 04:30:17;;;;;;;5.75;2.58;;;6.40;99.90;;;;;;5008221;28;20399;-71
2022/11/12 04:32:53;;;;;;;6.97;3.20;;;6.40;99.90;;;;;;5011124;28;20042;-71
2022/11/12 04:35:19;;;;;;;5.70;2.85;;;6.40;99.90;;;;;;5035614;28;20077;-69
2022/11/12 04:37:45;;;;;;;4.78;2.70;;;6.40;99.90;;;;;;5022732;28;20073;-69
2022/11/12 04:45:41;;;;;;;6.80;2.65;;;6.40;99.90;;;;;;5010065;28;20052;-69
2022/11/12 04:48:08;;;;;;;7.85;2.60;;;6.30;99.90;;;;;;5007951;28;20050;-70
2022/11/12 04:50:34;;;;;;;6.90;2.70;;;6.30;99.90;;;;;;4993119;28;20115;-69
2022/11/12 04:52:59;;;;;;;5.97;2.65;;;6.10;99.90;;;;;;5023184;28;20552;-70
2022/11/12 04:55:25;;;;;;;6.88;2.90;;;6.10;99.90;;;;;;5008787;28;20455;-69
2022/11/12 04:57:52;;;;;;;4.60;2.90;;;6.00;99.90;;;;;;4991740;28;20046;-70
2022/11/12 05:00:17;;;;;;;4.57;2.38;;;6.00;99.90;;;;;;4976440;28;20375;-70
2022/11/12 05:02:43;;;;;;;5.30;2.70;;;6.00;99.90;;;;;;4988824;28;20047;-70
2022/11/12 05:05:09;;;;;;;4.03;2.33;;;5.90;99.90;;;;;;5005876;28;20495;-70
2022/11/12 05:07:36;;;;;;;5.28;2.38;;;5.90;99.90;;;;;;5045062;28;20613;-70
2022/11/12 05:10:02;;;;;;;4.00;2.50;;;5.80;99.90;;;;;;5011375;28;20153;-70
2022/11/12 05:12:27;;;;;;;5.68;2.58;;;5.80;99.90;;;;;;5019215;28;20107;-70
2022/11/12 05:14:55;;;;;;;3.83;2.60;;;5.80;99.90;;;;;;5010640;28;20053;-70
2022/11/12 05:17:20;;;;;;;7.32;2.83;;;5.70;99.90;;;;;;5025367;28;20519;-70
2022/11/12 05:19:46;;;;;;;5.55;2.70;;;5.70;99.90;;;;;;5012475;28;20125;-69
2022/11/12 05:22:12;;;;;;;6.15;2.50;;;5.60;99.90;;;;;;5012100;28;20112;-70
2022/11/12 05:24:39;;;;;;;7.25;3.08;;;5.60;99.90;;;;;;5010151;28;20072;-70
2022/11/12 05:27:19;;;;;;;6.30;3.03;;;5.60;99.90;;;;;;4995582;28;20053;-70
2022/11/12 05:29:45;;;;;;;6.78;3.42;;;5.50;99.90;;;;;;5012645;28;20065;-69
2022/11/12 05:32:12;;;;;;;8.15;4.05;;;5.50;99.90;;;;;;4986887;28;20066;-69
2022/11/12 05:34:38;;;;;;;7.97;4.00;;;5.60;99.90;;;;;;5015031;28;20043;-69
2022/11/12 05:37:04;;;;;;;7.85;4.38;;;5.60;99.90;;;;;;5026715;28;20133;-69
2022/11/12 05:39:30;;;;;;;9.10;4.78;;;5.50;99.90;;;;;;5008923;28;20061;-69
2022/11/12 05:41:56;;;;;;;8.95;4.68;;;5.60;99.90;;;;;;4994577;28;20606;-70
2022/11/12 05:44:22;;;;;;;9.38;5.25;;;5.60;99.90;;;;;;5025265;28;20100;-70
2022/11/12 05:46:49;;;;;;;5.75;3.38;;;5.60;99.90;;;;;;5028356;28;20108;-70
2022/11/12 05:49:14;;;;;;;5.78;3.42;;;5.60;99.90;;;;;;5001461;28;20049;-70
2022/11/12 05:51:40;;;;;;;7.47;3.97;;;5.60;99.90;;;;;;5023624;28;20034;-70
2022/11/12 05:54:06;;;;;;;5.70;3.60;;;5.60;99.90;;;;;;5012013;28;20038;-70
2022/11/12 05:56:32;;;;;;;6.78;4.20;;;5.60;99.90;;;;;;5028584;28;20527;-70
2022/11/12 05:58:58;;;;;;;6.20;3.17;;;5.50;99.90;;;;;;5011525;28;20057;-69
2022/11/12 06:01:23;;;;;;;6.18;3.38;;;5.40;99.90;;;;;;5011510;28;20668;-69
2022/11/12 06:03:49;;;;;;;9.73;3.78;;;5.50;99.90;;;;;;5026269;28;20105;-69
2022/11/12 06:06:15;;;;;;;7.53;3.60;;;5.40;99.90;;;;;;5012039;28;20119;-69
2022/11/12 06:08:40;;;;;;;8.13;3.90;;;5.50;99.90;;;;;;5011742;28;20060;-69
2022/11/12 06:11:06;;;;;;;7.60;3.83;;;5.50;99.90;;;;;;5011477;28;20124;-69
2022/11/12 06:13:32;;;;;;;6.78;3.58;;;5.50;99.90;;;;;;5009501;28;20046;-69
2022/11/12 06:15:58;;;;;;;7.38;3.72;;;5.60;99.90;;;;;;5026696;28;20207;-70
2022/11/12 06:18:25;;;;;;;5.05;3.50;;;5.60;99.90;;;;;;5027206;28;20103;-70
2022/11/12 06:23:35;;;;;;;7.40;3.40;;;5.60;99.90;;;;;;5007897;28;20091;-70
2022/11/12 06:26:01;;;;;;;5.88;3.03;;;5.60;99.90;;;;;;5024539;28;20049;-70
2022/11/12 06:28:27;;;;;;;5.60;2.70;;;5.60;99.90;;;;;;5014476;28;20050;-70
2022/11/12 06:30:52;;;;;;;5.30;2.90;;;5.50;99.90;;;;;;4993475;28;20049;-70
2022/11/12 06:33:18;;;;;;;5.75;2.90;;;5.60;99.90;;;;;;5010117;28;20375;-70
2022/11/12 06:35:44;;;;;;;6.20;3.13;;;5.60;99.90;;;;;;5011493;28;20104;-69
2022/11/12 06:38:10;;;;;;;7.57;3.00;;;5.60;99.90;;;;;;5010173;28;20081;-70
2022/11/12 06:40:35;;;;;;;6.45;3.33;;;5.60;99.90;;;;;;5008603;28;20054;-70
2022/11/12 06:43:01;;;;;;;5.55;3.08;;;5.60;99.90;;;;;;5025970;28;20049;-70
2022/11/12 06:45:27;;;;;;;6.22;2.78;;;5.60;99.90;;;;;;5011529;28;20050;-70
2022/11/12 06:47:56;;;;;;;6.00;2.95;;;5.60;99.90;;;;;;5002902;28;20360;-70
2022/11/12 06:50:22;;;;;;;6.35;3.00;;;5.60;99.90;;;;;;5008987;28;20042;-70
2022/11/12 06:52:48;;;;;;;4.65;3.10;;;5.60;99.90;;;;;;5010541;28;20048;-70
2022/11/12 06:55:14;;;;;;;4.82;3.13;;;5.70;99.90;;;;;;5009481;28;20042;-69
2022/11/12 06:57:40;;;;;;;7.43;3.17;;;5.70;99.90;;;;;;5041548;28;20034;-70
2022/11/12 07:00:08;;;;;;;4.53;2.78;;;5.60;99.90;;;;;;5007509;28;20056;-70
2022/11/12 07:02:35;;;;;;;6.15;3.33;;;5.70;99.90;;;;;;5010328;28;20057;-70
2022/11/12 07:05:00;;;;;;;7.45;3.10;;;5.70;99.90;;;;;;5019034;28;20058;-70
2022/11/12 07:07:27;;;;;;;4.85;3.08;;;5.70;99.90;;;;;;5009729;28;20388;-70
2022/11/12 07:09:53;;;;;;;6.25;3.85;;;5.80;99.90;;;;;;5026947;28;20060;-70
2022/11/12 07:12:21;;;;;;;6.35;3.00;;;5.80;99.90;;;;;;5012871;28;20467;-71
2022/11/12 07:14:49;;;;;;;5.30;2.88;;;5.80;99.90;;;;;;5017802;28;20132;-70
2022/11/12 07:17:17;;;;;;;7.07;3.42;;;5.80;99.90;;;;;;5011116;28;20049;-70
2022/11/12 07:19:45;;;;;;;6.10;3.53;;;5.90;99.90;;;;;;5012209;28;20081;-70
2022/11/12 07:22:11;;;;;;;6.15;3.00;;;5.90;99.90;;;;;;5021844;28;20364;-70
2022/11/12 07:24:37;;;;;;;4.55;3.00;;;5.90;99.90;;;;;;5013718;28;20054;-71
2022/11/12 07:27:02;;;;;;;7.97;3.25;;;6.00;99.90;;;;;;5024342;28;20365;-70
2022/11/12 07:29:28;;;;;;;6.00;3.15;;;6.00;99.90;;;;;;4990987;28;20062;-70
2022/11/12 07:31:54;;;;;;;6.00;2.95;;;6.10;99.90;;;;;;5007608;28;20077;-70
2022/11/12 07:34:20;;;;;;;8.80;2.65;;;6.00;99.90;;;;;;5010311;28;20045;-70
2022/11/12 07:36:47;;;;;;;6.32;3.03;;;6.00;99.90;;;;;;5003426;28;20054;-70
2022/11/12 07:39:13;;;;;;;6.10;2.55;;;6.10;99.90;;;;;;5011637;28;20050;-70
2022/11/12 07:41:39;;;;;;;6.82;3.22;;;6.10;99.90;;;;;;4990610;28;20050;-70
2022/11/12 07:44:05;;;;;;;8.63;3.38;;;6.20;99.90;;;;;;5026019;28;20057;-70
2022/11/12 07:46:32;;;;;;;7.82;3.50;;;6.20;99.90;;;;;;4986717;28;20464;-70
2022/11/12 07:48:58;;;;;;;6.07;3.22;;;6.20;99.90;;;;;;5041845;28;20349;-70
2022/11/12 07:51:25;;;;;;;8.80;4.25;;;6.20;99.90;;;;;;5021866;28;20057;-71
2022/11/12 07:53:56;;;;;;;11.15;6.18;;;6.30;99.90;;;;;;5010741;28;20041;-68
2022/11/12 07:56:22;;;;;;;9.88;5.72;;;6.30;99.90;;;;;;5005271;28;20049;-67
2022/11/12 07:58:49;;;;;;;9.50;5.85;;;6.40;99.90;;;;;;5010274;28;20045;-67
2022/11/12 08:01:35;;;;;;;9.20;5.38;;;6.40;99.90;;;;;;5008595;28;20085;-66
2022/11/12 08:04:03;;;;;;;11.48;6.03;;;6.40;99.90;;;;;;5002511;28;20057;-67
2022/11/12 08:06:29;;;;;;;10.53;5.53;;;6.40;99.90;;;;;;5009289;28;20104;-66
2022/11/12 08:08:55;;;;;;;10.75;5.90;;;6.50;99.90;;;;;;4993588;28;20288;-67
2022/11/12 08:11:21;;;;;;;10.20;5.70;;;6.40;99.90;;;;;;5007933;28;20042;-66
2022/11/12 08:13:47;;;;;;;8.35;4.70;;;6.50;99.90;;;;;;4993134;28;20482;-66
2022/11/12 08:16:13;;;;;;;9.27;5.00;;;6.50;99.90;;;;;;5008495;28;20053;-67
2022/11/12 08:18:38;;;;;;;7.60;3.92;;;6.50;99.90;;;;;;5008445;28;20152;-67
2022/11/12 08:21:06;;;;;;;6.43;3.53;;;6.50;99.90;;;;;;5041690;28;20049;-67
2022/11/12 08:23:32;;;;;;;3.65;2.25;;;6.50;99.90;;;;;;5004439;28;20510;-67
2022/11/12 08:26:03;;;;;;;6.72;3.28;;;6.50;99.90;;;;;;4989997;28;20054;-68
2022/11/12 08:28:29;;;;;;;5.95;3.13;;;6.60;99.90;;;;;;4992406;28;20061;-69
2022/11/12 08:30:55;;;;;;;7.72;3.67;;;6.60;99.90;;;;;;5025988;28;20052;-70
2022/11/12 08:33:21;;;;;;;6.65;3.67;;;6.60;99.90;;;;;;5009822;28;20057;-70
2022/11/12 08:35:47;;;;;;;5.70;3.50;;;6.70;99.90;;;;;;5008560;28;20062;-70
2022/11/12 08:38:13;;;;;;;6.32;3.63;;;6.70;99.90;;;;;;5009217;28;20053;-70
2022/11/12 08:40:38;;;;;;;10.10;3.90;;;6.70;99.90;;;;;;5012504;28;20057;-70
2022/11/12 08:43:06;;;;;;;5.93;3.15;;;6.70;99.90;;;;;;5006517;28;20042;-70
2022/11/12 08:45:32;;;;;;;6.23;3.20;;;6.70;99.90;;;;;;5013648;28;20446;-70
2022/11/12 08:47:59;;;;;;;6.13;2.92;;;6.80;99.90;;;;;;5013705;28;20045;-71
2022/11/12 08:50:25;;;;;;;7.53;3.58;;;6.80;99.90;;;;;;5010572;28;20053;-70
2022/11/12 08:52:51;;;;;;;7.07;3.22;;;6.90;99.90;;;;;;5009638;28;20132;-70
2022/11/12 08:55:16;;;;;;;5.93;3.20;;;6.90;99.90;;;;;;5046212;28;20479;-70
2022/11/12 08:57:42;;;;;;;6.55;3.22;;;6.90;99.90;;;;;;5024499;28;20046;-70
2022/11/12 09:00:09;;;;;;;6.50;3.40;;;7.00;99.90;;;;;;5027896;28;20049;-70
2022/11/12 09:02:35;;;;;;;6.47;3.22;;;7.10;99.90;;;;;;5013358;28;20054;-71
2022/11/12 09:05:01;;;;;;;8.60;3.58;;;7.30;99.90;;;;;;5013380;28;20506;-70
2022/11/12 09:07:27;;;;;;;6.80;3.95;;;7.40;99.90;;;;;;5027914;28;20480;-71
2022/11/12 09:09:52;;;;;;;6.80;3.63;;;7.50;99.90;;;;;;5012717;28;20054;-70
2022/11/12 09:12:18;;;;;;;8.52;4.15;;;7.60;99.90;;;;;;5012522;28;20050;-71
2022/11/12 09:14:44;;;;;;;5.65;3.20;;;7.70;99.90;;;;;;5012676;28;20037;-71
2022/11/12 09:17:11;;;;;;;6.47;3.50;;;7.80;99.90;;;;;;5011598;28;20050;-70
2022/11/12 09:19:36;;;;;;;6.22;3.22;;;7.90;99.90;;;;;;4994934;28;20157;-70
2022/11/12 09:22:02;;;;;;;7.35;3.60;;;8.00;99.90;;;;;;5017207;28;20133;-70
2022/11/12 09:24:28;;;;;;;8.77;5.53;;;8.20;99.90;;;;;;5011546;28;20054;-70
2022/11/12 09:26:54;;;;;;;7.68;5.25;;;8.30;99.90;;;;;;4994358;28;20411;-70
2022/11/12 09:29:19;;;;;;;6.15;4.13;;;8.40;99.90;;;;;;5008138;28;20154;-70
2022/11/12 09:31:45;;;;;;;6.72;3.72;;;8.50;99.90;;;;;;4996297;28;20041;-70
2022/11/12 09:34:11;;;;;;;5.35;3.30;;;8.60;99.90;;;;;;4994001;28;20050;-70
2022/11/12 09:36:37;;;;;;;8.25;4.50;;;8.60;99.90;;;;;;5012770;28;20587;-70
2022/11/12 09:39:03;;;;;;;8.98;5.53;;;8.70;99.90;;;;;;5012058;28;20064;-71
2022/11/12 09:41:31;;;;;;;9.55;6.18;;;8.80;99.90;;;;;;5012706;28;20145;-70
2022/11/12 09:44:01;;;;;;;12.80;4.60;;;8.80;99.90;;;;;;4993139;28;20128;-70
2022/11/12 09:46:58;;;;;;;8.07;4.40;;;8.90;99.90;;;;;;5026045;28;20462;-70
2022/11/12 09:49:28;;;;;;;6.90;4.33;;;9.00;99.90;;;;;;5023903;28;20046;-70
2022/11/12 09:51:55;;;;;;;11.43;4.82;;;9.10;99.90;;;;;;5023852;28;20054;-70
2022/11/12 09:54:23;;;;;;;6.32;4.55;;;9.10;99.90;;;;;;5026105;28;20129;-70
2022/11/12 09:56:50;;;;;;;9.00;4.50;;;9.10;99.90;;;;;;5026843;28;20053;-70
2022/11/12 09:59:16;;;;;;;6.13;4.50;;;9.20;99.90;;;;;;5024497;28;20388;-70
2022/11/12 10:02:07;;;;;;;8.10;5.57;;;9.20;99.90;;;;;;5009702;28;20137;-70
2022/11/12 10:04:38;;;;;;;11.32;6.25;;;9.30;99.90;;;;;;5019752;28;20124;-70
2022/11/12 10:07:27;;;;;;;11.25;5.60;;;9.40;99.90;;;;;;4993420;28;20046;-70
2022/11/12 10:09:58;;;;;;;9.77;4.55;;;9.40;99.90;;;;;;5003178;28;20050;-70
2022/11/12 10:12:49;;;;;;;5.90;4.10;;;9.50;99.90;;;;;;5043497;28;20046;-71
2022/11/12 10:18:22;;;;;;;6.13;4.10;;;9.60;99.90;;;;;;5042801;28;20468;-70
2022/11/12 10:20:53;;;;;;;7.30;4.05;;;9.70;99.90;;;;;;5025026;28;20089;-70
2022/11/12 10:23:35;;;;;;;8.07;3.90;;;9.60;99.90;;;;;;5010609;28;20044;-70
2022/11/12 10:26:01;;;;;;;9.07;5.78;;;9.70;99.90;;;;;;5011292;28;20510;-70
2022/11/12 10:28:29;;;;;;;7.47;4.25;;;9.80;99.90;;;;;;5010904;28;20058;-70
2022/11/12 10:30:57;;;;;;;5.65;4.05;;;9.90;99.90;;;;;;5026262;28;20108;-70
2022/11/12 10:33:23;;;;;;;6.47;3.60;;;10.00;99.90;;;;;;4994866;28;20088;-70
2022/11/12 10:35:49;;;;;;;5.78;3.58;;;10.00;99.90;;;;;;5011506;28;20100;-69
2022/11/12 10:38:19;;;;;;;7.20;3.75;;;10.10;99.90;;;;;;5026386;28;20042;-71
2022/11/12 10:40:45;;;;;;;6.20;3.72;;;10.10;99.90;;;;;;4994754;28;20457;-70
2022/11/12 10:43:17;;;;;;;7.43;3.92;;;10.20;99.90;;;;;;5010389;28;20050;-70
2022/11/12 10:45:43;;;;;;;6.95;3.65;;;10.20;99.90;;;;;;5042225;28;20041;-70
2022/11/12 10:48:27;;;;;;;7.20;3.80;;;10.30;99.90;;;;;;5021832;28;20045;-70
2022/11/12 10:50:53;;;;;;;5.90;3.33;;;10.40;99.90;;;;;;5022922;28;20121;-72
2022/11/12 10:53:34;;;;;;;7.05;3.10;;;10.40;99.90;;;;;;5024408;28;20148;-71
2022/11/12 10:56:02;;;;;;;6.80;2.63;;;10.50;99.90;;;;;;5014833;28;20068;-72
2022/11/12 10:58:28;;;;;;;4.57;3.20;;;10.50;99.90;;;;;;5009706;28;20475;-71
2022/11/12 11:01:02;;;;;;;6.43;3.00;;;10.60;99.90;;;;;;5007071;28;20303;-71
2022/11/12 11:03:32;;;;;;;6.00;2.88;;;10.70;99.90;;;;;;5006605;28;20054;-70
2022/11/12 11:06:00;;;;;;;6.00;3.10;;;10.80;99.90;;;;;;5020975;28;20050;-70
2022/11/12 11:08:44;;;;;;;6.78;2.95;;;10.90;99.90;;;;;;4976364;28;20053;-70
2022/11/12 11:11:20;;;;;;;3.70;2.50;;;10.90;99.90;;;;;;5004440;28;20041;-70
2022/11/12 11:13:47;;;;;;;5.72;3.00;;;11.10;99.90;;;;;;5023285;28;20052;-70
2022/11/12 11:16:24;;;;;;;6.65;3.17;;;11.10;99.90;;;;;;5026942;28;20117;-70
2022/11/12 11:18:58;;;;;;;7.53;2.72;;;11.10;99.90;;;;;;5021828;28;20129;-70
2022/11/12 11:21:52;;;;;;;4.68;2.60;;;11.30;99.90;;;;;;5009608;28;20052;-70
2022/11/12 11:25:00;;;;;;;5.95;2.75;;;11.30;99.90;;;;;;5036665;28;20468;-70
2022/11/12 11:27:45;;;;;;;;;;;11.50;99.90;;;;;;5005974;28;20191;-70
2022/11/12 11:30:18;;;;;;;7.18;3.75;;;11.50;99.90;;;;;;5009031;28;20008;-70
2022/11/12 11:33:21;;;;;;;6.30;4.15;;;11.60;99.90;;;;;;5009475;28;20107;-70
2022/11/12 11:36:12;;;;;;;9.45;3.83;;;11.80;99.90;;;;;;5008690;28;20076;-71
2022/11/12 11:38:40;;;;;;;8.57;3.33;;;11.90;99.90;;;;;;5010894;28;20054;-70
2022/11/12 11:41:21;;;;;;;;;;;12.10;99.90;;;;;;5004846;28;20060;-70
2022/11/12 11:44:16;;;;;;;6.45;4.20;;;12.20;99.90;;;;;;5009690;28;20350;-71
2022/11/12 11:47:01;;;;;;;7.22;4.20;;;12.50;99.90;;;;;;5010648;28;20049;-70
2022/11/12 11:50:00;;;;;;;7.97;4.70;;;12.60;99.90;;;;;;5005345;28;20131;-70
2022/11/12 11:52:36;;;;;;;5.57;4.10;;;12.80;99.90;;;;;;5005109;28;20383;-70
2022/11/12 11:55:16;;;;;;;7.10;3.97;;;13.10;99.90;;;;;;5008364;28;20065;-71
2022/11/12 11:57:57;;;;;;;7.65;4.40;;;13.40;99.90;;;;;;5010789;28;20065;-70
2022/11/12 12:00:24;;;;;;;7.65;3.88;;;14.10;99.90;;;;;;5009097;28;20085;-71
2022/11/12 12:03:25;;;;;;;6.07;3.80;;;14.70;99.90;;;;;;5009573;28;20042;-70
2022/11/12 12:05:54;;;;;;;7.40;4.15;;;14.90;99.10;;;;;;4991856;28;20052;-70
2022/11/12 12:08:35;;;;;;;6.05;3.55;;;15.50;99.70;;;;;;5008142;28;20046;-70
2022/11/12 12:11:20;;;;;;;4.88;2.00;;;15.70;96.20;;;;;;5008741;28;20038;-70
2022/11/12 12:13:50;;;;;;;5.90;2.63;;;15.80;94.60;;;;;;5009803;28;20061;-71
2022/11/12 12:16:37;;;;;;;5.07;1.88;;;15.90;96.60;;;;;;5007406;28;20050;-71
2022/11/12 12:19:06;;;;;;;5.07;2.03;;;16.30;95.30;;;;;;5009974;28;20046;-71
2022/11/12 12:21:33;;;;;;;5.15;2.20;;;16.50;94.20;;;;;;5010368;28;20125;-71
2022/11/12 12:24:08;;;;;;;4.03;2.20;;;16.70;94.40;;;;;;5007350;28;20056;-71
2022/11/12 12:26:49;;;;;;;3.70;1.90;;;17.00;93.80;;;;;;5026221;28;20054;-72
2022/11/12 12:29:42;;;;;;;4.15;2.05;;;17.50;92.40;;;;;;4989788;28;20049;-70
2022/11/12 12:32:33;;;;;;;3.63;2.00;;;18.00;93.10;;;;;;5001930;28;20517;-72
2022/11/12 12:35:41;;;;;;;3.83;1.90;;;18.50;91.70;;;;;;5008535;28;20057;-70
2022/11/12 12:38:18;;;;;;;4.75;1.98;;;18.60;91.90;;;;;;5028400;28;20072;-69
2022/11/12 12:41:15;;;;;;;4.13;1.70;;;18.70;91.60;;;;;;5009067;28;20050;-68
2022/11/12 12:43:43;;;;;;;4.00;1.90;;;18.60;90.90;;;;;;5007906;28;20387;-71
2022/11/12 12:46:11;;;;;;;5.35;2.20;;;18.80;90.90;;;;;;5007263;28;20126;-71
2022/11/12 12:48:41;;;;;;;5.45;1.98;;;18.70;90.80;;;;;;5007717;28;20037;-71
2022/11/12 12:51:07;;;;;;;5.82;2.35;;;18.70;90.20;;;;;;5023112;28;20038;-71
2022/11/12 12:53:34;;;;;;;4.63;2.50;;;18.50;89.60;;;;;;5006834;28;20060;-71
2022/11/12 12:56:04;;;;;;;4.93;2.60;;;18.50;89.80;;;;;;5009222;28;20050;-71
2022/11/12 12:58:50;;;;;;;4.45;2.35;;;18.40;90.80;;;;;;5009136;28;20597;-71
2022/11/12 13:01:22;;;;;;;3.03;2.03;;;18.30;87.20;;;;;;5036253;28;20046;-71
2022/11/12 13:04:02;;;;;;;4.75;2.33;;;18.10;88.50;;;;;;5008028;28;20149;-73
2022/11/12 13:06:51;;;;;;;5.13;2.50;;;18.00;88.70;;;;;;5025450;28;20080;-71
2022/11/12 13:09:17;;;;;;;5.47;2.20;;;17.90;88.00;;;;;;5005517;28;20081;-71
2022/11/12 13:14:36;;;;;;;3.70;1.90;;;17.90;86.00;;;;;;5007028;28;21004;-71
2022/11/12 13:17:08;;;;;;;3.50;2.28;;;17.60;88.10;;;;;;5009726;28;20494;-70
2022/11/12 13:19:45;;;;;;;4.35;1.92;;;17.50;88.80;;;;;;5008583;28;20137;-71
2022/11/12 13:22:16;;;;;;;4.82;2.08;;;17.50;88.70;;;;;;4991023;28;20388;-71
2022/11/12 13:25:07;;;;;;;4.70;1.73;;;17.30;88.00;;;;;;5006129;28;20050;-70
2022/11/12 13:27:44;;;;;;;5.03;2.20;;;17.20;86.90;;;;;;4992801;28;20141;-70
2022/11/12 13:30:13;;;;;;;3.47;1.73;;;17.00;89.20;;;;;;5013286;28;20058;-70
2022/11/12 13:32:45;;;;;;;3.85;1.90;;;17.00;90.10;;;;;;5010925;28;20408;-70
2022/11/12 13:35:10;;;;;;;4.93;1.80;;;16.90;90.20;;;;;;5027630;28;20061;-71